Impacts TAF Board
For situational awareness. Not to be used for flight planning purposes.
IDs:

KBWI - Baltimore-Washington, MD, US

Issued at 2050 UTC 26 Feb 2020
Updated at 2325 UTC 26 Feb 2020
Potential Impact None Slight Moderate High
Time2254Z 27/00Z 27/01Z 27/02Z 27/03Z 27/04Z 27/05Z 27/06Z 27/07Z 27/08Z 27/09Z 27/10Z 27/11Z 27/12Z>>
Type OBS PRVL PRVL PRVL PRVL PRVL PRVL PRVL PRVL PRVL PRVL PRVL PRVL PRVL
VIS 8 5 5 5 5 2 5 5 5 >6 >6 >6 >6 >6
CIG 6 5 3 3 3 10 15 25 25 90 90 90 90 --
Cover OVC OVC OVC OVC OVC OVC OVC OVC OVC BKN BKN BKN BKN FEW
FltCat IFR IFR LIFR LIFR LIFR IFR MVFR MVFR MVFR VFR VFR VFR VFR VFR
WX -- BR BR BR BR SHRA SHRA -SHRA -SHRA -- -- -- -- --
WDir 90 100 110 110 110 150 240 280 280 270 270 270 270 270
WSpd 10 7 10 10 10 10 11 13 13 14 14 14 14 15
WGst -- -- -- -- -- 17 20 22 22 24 24 24 24 25
Raw TAF
KBWI 262050Z 2621/2724 09006KT 6SM BR OVC007
  FM262300 10007KT 5SM BR OVC005
  FM270100 11010KT 5SM BR OVC003
  FM270400 15010G17KT 2SM SHRA OVC010
  FM270500 24011G20KT 5SM SHRA OVC015
  FM270600 28013G22KT 5SM -SHRA OVC025
  FM270800 27014G24KT P6SM BKN090
  FM271200 27015G25KT P6SM FEW200
  FM271500 27020G35KT P6SM FEW250


Raw METAR
KBWI 262254Z 09010KT 8SM OVC006 09/07 A2973 RMK AO2 SLP069 T00940072
KBWI 262154Z 09009KT 8SM OVC007 09/07 A2976 RMK AO2 SLP078 T00940072
KBWI 262054Z 08008KT 6SM BR OVC006 09/08 A2978 RMK AO2 DZE53 SLP084 P0000 60000 T00940078 58029

METAR Board
Radar Display
Forecast Discussion
For situational awareness. Not to be used for flight planning purposes.